sensor_id;sensor_type;location;lat;lon;timestamp;temperature;humidity
6538;DHT22;3302;52.508;13.454;2023-04-24T00:00:11;12.30;99.70
6538;DHT22;3302;52.508;13.454;2023-04-24T00:02:41;12.20;99.90
6538;DHT22;3302;52.508;13.454;2023-04-24T00:05:15;12.20;99.80
6538;DHT22;3302;52.508;13.454;2023-04-24T00:07:41;12.30;99.90
6538;DHT22;3302;52.508;13.454;2023-04-24T00:10:08;12.20;99.90
6538;DHT22;3302;52.508;13.454;2023-04-24T00:12:34;12.20;99.90
6538;DHT22;3302;52.508;13.454;2023-04-24T00:15:00;12.20;99.90
6538;DHT22;3302;52.508;13.454;2023-04-24T00:17:26;12.20;99.90
6538;DHT22;3302;52.508;13.454;2023-04-24T00:19:52;12.20;99.90
6538;DHT22;3302;52.508;13.454;2023-04-24T00:22:25;12.10;99.90
6538;DHT22;3302;52.508;13.454;2023-04-24T00:24:51;12.20;99.90
6538;DHT22;3302;52.508;13.454;2023-04-24T00:27:17;12.10;99.90
6538;DHT22;3302;52.508;13.454;2023-04-24T00:29:42;12.00;99.90
6538;DHT22;3302;52.508;13.454;2023-04-24T00:32:08;12.10;99.90
6538;DHT22;3302;52.508;13.454;2023-04-24T00:34:34;12.00;99.90
6538;DHT22;3302;52.508;13.454;2023-04-24T00:37:00;12.00;99.90
6538;DHT22;3302;52.508;13.454;2023-04-24T00:39:26;12.20;99.90
6538;DHT22;3302;52.508;13.454;2023-04-24T00:41:52;12.10;99.90
6538;DHT22;3302;52.508;13.454;2023-04-24T00:44:18;12.00;99.90
6538;DHT22;3302;52.508;13.454;2023-04-24T00:46:46;12.00;99.90
6538;DHT22;3302;52.508;13.454;2023-04-24T00:49:13;12.20;99.90
6538;DHT22;3302;52.508;13.454;2023-04-24T00:51:39;12.10;99.90
6538;DHT22;3302;52.508;13.454;2023-04-24T00:54:06;12.00;99.90
6538;DHT22;3302;52.508;13.454;2023-04-24T00:56:32;12.00;99.90
6538;DHT22;3302;52.508;13.454;2023-04-24T00:58:58;11.90;99.90
6538;DHT22;3302;52.508;13.454;2023-04-24T01:01:24;11.90;99.90
6538;DHT22;3302;52.508;13.454;2023-04-24T01:03:51;11.80;99.90
6538;DHT22;3302;52.508;13.454;2023-04-24T01:06:18;11.80;99.90
6538;DHT22;3302;52.508;13.454;2023-04-24T01:08:46;11.70;99.90
6538;DHT22;3302;52.508;13.454;2023-04-24T01:11:13;11.80;99.90
6538;DHT22;3302;52.508;13.454;2023-04-24T01:13:39;11.80;99.90
6538;DHT22;3302;52.508;13.454;2023-04-24T01:16:05;11.70;99.90
6538;DHT22;3302;52.508;13.454;2023-04-24T01:18:31;11.60;99.90
6538;DHT22;3302;52.508;13.454;2023-04-24T01:20:58;11.50;99.90
6538;DHT22;3302;52.508;13.454;2023-04-24T01:23:25;11.60;99.90
6538;DHT22;3302;52.508;13.454;2023-04-24T01:25:52;11.60;99.90
6538;DHT22;3302;52.508;13.454;2023-04-24T01:28:18;11.60;99.90
6538;DHT22;3302;52.508;13.454;2023-04-24T01:30:44;11.60;99.90
6538;DHT22;3302;52.508;13.454;2023-04-24T01:33:10;11.60;99.90
6538;DHT22;3302;52.508;13.454;2023-04-24T01:35:37;11.60;99.90
6538;DHT22;3302;52.508;13.454;2023-04-24T01:38:03;11.60;99.90
6538;DHT22;3302;52.508;13.454;2023-04-24T01:40:30;11.60;99.90
6538;DHT22;3302;52.508;13.454;2023-04-24T01:42:57;11.80;99.90
6538;DHT22;3302;52.508;13.454;2023-04-24T01:45:23;11.80;99.90
6538;DHT22;3302;52.508;13.454;2023-04-24T01:47:50;11.80;99.90
6538;DHT22;3302;52.508;13.454;2023-04-24T01:50:16;11.80;99.90
6538;DHT22;3302;52.508;13.454;2023-04-24T01:52:42;11.70;99.90
6538;DHT22;3302;52.508;13.454;2023-04-24T01:55:08;11.40;99.90
6538;DHT22;3302;52.508;13.454;2023-04-24T01:57:34;11.50;99.90
6538;DHT22;3302;52.508;13.454;2023-04-24T02:00:01;11.40;99.90
6538;DHT22;3302;52.508;13.454;2023-04-24T02:02:26;11.60;99.90
6538;DHT22;3302;52.508;13.454;2023-04-24T02:04:53;11.40;99.90
6538;DHT22;3302;52.508;13.454;2023-04-24T02:07:20;11.40;99.90
6538;DHT22;3302;52.508;13.454;2023-04-24T02:09:45;11.40;99.90
6538;DHT22;3302;52.508;13.454;2023-04-24T02:12:11;11.50;99.90
6538;DHT22;3302;52.508;13.454;2023-04-24T02:14:37;11.50;99.90
6538;DHT22;3302;52.508;13.454;2023-04-24T02:17:03;11.50;99.90
6538;DHT22;3302;52.508;13.454;2023-04-24T02:19:29;11.50;99.90
6538;DHT22;3302;52.508;13.454;2023-04-24T02:21:54;11.50;99.90
6538;DHT22;3302;52.508;13.454;2023-04-24T02:24:20;11.50;99.90
6538;DHT22;3302;52.508;13.454;2023-04-24T02:26:46;11.50;99.90
6538;DHT22;3302;52.508;13.454;2023-04-24T02:29:12;11.60;99.90
6538;DHT22;3302;52.508;13.454;2023-04-24T02:31:37;11.50;99.90
6538;DHT22;3302;52.508;13.454;2023-04-24T02:34:03;11.50;99.90
6538;DHT22;3302;52.508;13.454;2023-04-24T02:36:29;11.50;99.90
6538;DHT22;3302;52.508;13.454;2023-04-24T02:38:55;11.40;99.90
6538;DHT22;3302;52.508;13.454;2023-04-24T02:41:21;11.50;99.90
6538;DHT22;3302;52.508;13.454;2023-04-24T02:43:47;11.50;99.90
6538;DHT22;3302;52.508;13.454;2023-04-24T02:46:13;11.50;99.90
6538;DHT22;3302;52.508;13.454;2023-04-24T02:48:39;11.50;99.90
6538;DHT22;3302;52.508;13.454;2023-04-24T02:51:04;11.40;99.90
6538;DHT22;3302;52.508;13.454;2023-04-24T02:53:32;11.50;99.90
6538;DHT22;3302;52.508;13.454;2023-04-24T02:55:58;11.40;99.90
6538;DHT22;3302;52.508;13.454;2023-04-24T02:58:24;11.40;99.90
6538;DHT22;3302;52.508;13.454;2023-04-24T03:00:54;11.50;99.90
6538;DHT22;3302;52.508;13.454;2023-04-24T03:03:21;11.50;99.90
6538;DHT22;3302;52.508;13.454;2023-04-24T03:05:47;11.50;99.90
6538;DHT22;3302;52.508;13.454;2023-04-24T03:08:12;11.50;99.90
6538;DHT22;3302;52.508;13.454;2023-04-24T03:10:40;11.50;99.90
6538;DHT22;3302;52.508;13.454;2023-04-24T03:13:06;11.60;99.90
6538;DHT22;3302;52.508;13.454;2023-04-24T03:15:31;11.60;99.90
6538;DHT22;3302;52.508;13.454;2023-04-24T03:17:57;11.50;99.90
6538;DHT22;3302;52.508;13.454;2023-04-24T03:20:23;11.50;99.90
6538;DHT22;3302;52.508;13.454;2023-04-24T03:22:49;11.60;99.90
6538;DHT22;3302;52.508;13.454;2023-04-24T03:25:15;11.60;99.90
6538;DHT22;3302;52.508;13.454;2023-04-24T03:27:41;11.60;99.90
6538;DHT22;3302;52.508;13.454;2023-04-24T03:30:07;11.70;99.90
6538;DHT22;3302;52.508;13.454;2023-04-24T03:32:33;11.70;99.90
6538;DHT22;3302;52.508;13.454;2023-04-24T03:34:59;11.80;99.90
6538;DHT22;3302;52.508;13.454;2023-04-24T03:37:26;11.80;99.90
6538;DHT22;3302;52.508;13.454;2023-04-24T03:39:52;11.80;99.90
6538;DHT22;3302;52.508;13.454;2023-04-24T03:42:18;11.90;99.90
6538;DHT22;3302;52.508;13.454;2023-04-24T03:44:43;11.90;99.90
6538;DHT22;3302;52.508;13.454;2023-04-24T03:47:09;11.90;99.90
6538;DHT22;3302;52.508;13.454;2023-04-24T03:49:35;12.00;99.90
6538;DHT22;3302;52.508;13.454;2023-04-24T03:52:01;12.00;99.90
6538;DHT22;3302;52.508;13.454;2023-04-24T03:54:27;12.00;99.90
6538;DHT22;3302;52.508;13.454;2023-04-24T03:56:53;12.10;99.90
6538;DHT22;3302;52.508;13.454;2023-04-24T03:59:19;12.20;99.90
6538;DHT22;3302;52.508;13.454;2023-04-24T04:01:44;12.20;99.90
6538;DHT22;3302;52.508;13.454;2023-04-24T04:04:11;12.20;99.90
6538;DHT22;3302;52.508;13.454;2023-04-24T04:06:37;12.20;99.90
6538;DHT22;3302;52.508;13.454;2023-04-24T04:09:02;12.20;99.90
6538;DHT22;3302;52.508;13.454;2023-04-24T04:11:29;12.20;99.90
6538;DHT22;3302;52.508;13.454;2023-04-24T04:13:55;12.20;99.90
6538;DHT22;3302;52.508;13.454;2023-04-24T04:16:22;12.20;99.90
6538;DHT22;3302;52.508;13.454;2023-04-24T04:18:48;12.20;99.90
6538;DHT22;3302;52.508;13.454;2023-04-24T04:21:14;12.20;99.90
6538;DHT22;3302;52.508;13.454;2023-04-24T04:23:40;12.20;99.90
6538;DHT22;3302;52.508;13.454;2023-04-24T04:26:06;12.20;99.90
6538;DHT22;3302;52.508;13.454;2023-04-24T04:28:32;12.20;99.90
6538;DHT22;3302;52.508;13.454;2023-04-24T04:30:58;12.20;99.90
6538;DHT22;3302;52.508;13.454;2023-04-24T04:33:24;12.20;99.90
6538;DHT22;3302;52.508;13.454;2023-04-24T04:35:51;12.20;99.90
6538;DHT22;3302;52.508;13.454;2023-04-24T04:38:18;12.10;99.90
6538;DHT22;3302;52.508;13.454;2023-04-24T04:40:45;12.10;99.90
6538;DHT22;3302;52.508;13.454;2023-04-24T04:43:11;12.10;99.90
6538;DHT22;3302;52.508;13.454;2023-04-24T04:45:39;12.20;99.90
6538;DHT22;3302;52.508;13.454;2023-04-24T04:48:06;12.20;99.90
6538;DHT22;3302;52.508;13.454;2023-04-24T04:50:35;12.20;99.90
6538;DHT22;3302;52.508;13.454;2023-04-24T04:53:00;12.10;99.90
6538;DHT22;3302;52.508;13.454;2023-04-24T04:55:26;12.10;99.90
6538;DHT22;3302;52.508;13.454;2023-04-24T04:57:52;12.10;99.90
6538;DHT22;3302;52.508;13.454;2023-04-24T05:00:18;12.10;99.90
6538;DHT22;3302;52.508;13.454;2023-04-24T05:02:44;12.10;99.90
6538;DHT22;3302;52.508;13.454;2023-04-24T05:05:10;12.20;99.90
6538;DHT22;3302;52.508;13.454;2023-04-24T05:07:36;12.20;99.90
6538;DHT22;3302;52.508;13.454;2023-04-24T05:10:03;12.30;99.90
6538;DHT22;3302;52.508;13.454;2023-04-24T05:12:28;12.40;99.90
6538;DHT22;3302;52.508;13.454;2023-04-24T05:14:54;12.30;99.90
6538;DHT22;3302;52.508;13.454;2023-04-24T05:17:20;12.30;99.90
6538;DHT22;3302;52.508;13.454;2023-04-24T05:19:46;12.30;99.90
6538;DHT22;3302;52.508;13.454;2023-04-24T05:22:12;12.30;99.90
6538;DHT22;3302;52.508;13.454;2023-04-24T05:24:38;12.40;99.90
6538;DHT22;3302;52.508;13.454;2023-04-24T05:27:04;12.40;99.90
6538;DHT22;3302;52.508;13.454;2023-04-24T05:29:32;12.40;99.90
6538;DHT22;3302;52.508;13.454;2023-04-24T05:31:59;12.50;99.90
6538;DHT22;3302;52.508;13.454;2023-04-24T05:34:25;12.50;99.90
6538;DHT22;3302;52.508;13.454;2023-04-24T05:36:51;12.50;99.90
6538;DHT22;3302;52.508;13.454;2023-04-24T05:39:17;12.70;99.90
6538;DHT22;3302;52.508;13.454;2023-04-24T05:41:43;12.60;99.90
6538;DHT22;3302;52.508;13.454;2023-04-24T05:44:09;12.60;99.90
6538;DHT22;3302;52.508;13.454;2023-04-24T05:46:35;12.60;99.90
6538;DHT22;3302;52.508;13.454;2023-04-24T05:49:01;12.60;99.90
6538;DHT22;3302;52.508;13.454;2023-04-24T05:51:27;12.70;99.90
6538;DHT22;3302;52.508;13.454;2023-04-24T05:53:53;12.60;99.90
6538;DHT22;3302;52.508;13.454;2023-04-24T05:56:19;12.60;99.90
6538;DHT22;3302;52.508;13.454;2023-04-24T05:58:46;12.60;99.90
6538;DHT22;3302;52.508;13.454;2023-04-24T06:01:12;12.70;99.90
6538;DHT22;3302;52.508;13.454;2023-04-24T06:03:41;12.70;99.90
6538;DHT22;3302;52.508;13.454;2023-04-24T06:06:07;12.70;99.90
6538;DHT22;3302;52.508;13.454;2023-04-24T06:08:35;12.70;99.90
6538;DHT22;3302;52.508;13.454;2023-04-24T06:11:01;12.80;99.90
6538;DHT22;3302;52.508;13.454;2023-04-24T06:13:26;12.90;99.90
6538;DHT22;3302;52.508;13.454;2023-04-24T06:15:53;13.00;99.90
6538;DHT22;3302;52.508;13.454;2023-04-24T06:18:19;12.90;99.90
6538;DHT22;3302;52.508;13.454;2023-04-24T06:20:45;13.00;99.90
6538;DHT22;3302;52.508;13.454;2023-04-24T06:23:11;13.00;99.90
6538;DHT22;3302;52.508;13.454;2023-04-24T06:25:38;13.10;99.90
6538;DHT22;3302;52.508;13.454;2023-04-24T06:28:04;13.20;99.90
6538;DHT22;3302;52.508;13.454;2023-04-24T06:30:30;13.20;99.30
6538;DHT22;3302;52.508;13.454;2023-04-24T06:32:56;13.10;99.70
6538;DHT22;3302;52.508;13.454;2023-04-24T06:35:22;13.10;99.70
6538;DHT22;3302;52.508;13.454;2023-04-24T06:37:48;13.10;99.70
6538;DHT22;3302;52.508;13.454;2023-04-24T06:40:14;13.20;99.40
6538;DHT22;3302;52.508;13.454;2023-04-24T06:42:40;13.20;99.00
6538;DHT22;3302;52.508;13.454;2023-04-24T06:45:06;13.40;98.60
6538;DHT22;3302;52.508;13.454;2023-04-24T06:47:32;13.50;98.50
6538;DHT22;3302;52.508;13.454;2023-04-24T06:49:58;13.60;98.30
6538;DHT22;3302;52.508;13.454;2023-04-24T06:52:24;13.60;98.30
6538;DHT22;3302;52.508;13.454;2023-04-24T06:54:50;13.60;97.60
6538;DHT22;3302;52.508;13.454;2023-04-24T06:57:15;13.80;97.40
6538;DHT22;3302;52.508;13.454;2023-04-24T06:59:44;13.80;96.80
6538;DHT22;3302;52.508;13.454;2023-04-24T07:02:10;14.20;96.50
6538;DHT22;3302;52.508;13.454;2023-04-24T07:04:35;14.30;95.70
6538;DHT22;3302;52.508;13.454;2023-04-24T07:07:02;14.30;95.20
6538;DHT22;3302;52.508;13.454;2023-04-24T07:09:28;14.40;94.80
6538;DHT22;3302;52.508;13.454;2023-04-24T07:11:54;14.30;94.50
6538;DHT22;3302;52.508;13.454;2023-04-24T07:14:22;14.40;94.50
6538;DHT22;3302;52.508;13.454;2023-04-24T07:16:48;14.60;93.80
6538;DHT22;3302;52.508;13.454;2023-04-24T07:19:13;14.60;93.40
6538;DHT22;3302;52.508;13.454;2023-04-24T07:21:40;14.30;93.70
6538;DHT22;3302;52.508;13.454;2023-04-24T07:24:06;14.50;93.80
6538;DHT22;3302;52.508;13.454;2023-04-24T07:26:36;14.50;92.60
6538;DHT22;3302;52.508;13.454;2023-04-24T07:29:02;14.70;92.40
6538;DHT22;3302;52.508;13.454;2023-04-24T07:31:28;14.80;92.30
6538;DHT22;3302;52.508;13.454;2023-04-24T07:33:54;14.90;92.10
6538;DHT22;3302;52.508;13.454;2023-04-24T07:36:19;14.70;89.50
6538;DHT22;3302;52.508;13.454;2023-04-24T07:38:46;14.60;89.70
6538;DHT22;3302;52.508;13.454;2023-04-24T07:41:13;14.60;87.10
6538;DHT22;3302;52.508;13.454;2023-04-24T07:43:39;14.50;87.40
6538;DHT22;3302;52.508;13.454;2023-04-24T07:46:06;14.60;87.40
6538;DHT22;3302;52.508;13.454;2023-04-24T07:48:31;14.70;85.70
6538;DHT22;3302;52.508;13.454;2023-04-24T07:50:57;15.10;84.50
6538;DHT22;3302;52.508;13.454;2023-04-24T07:53:23;15.20;82.80
6538;DHT22;3302;52.508;13.454;2023-04-24T07:55:49;15.30;82.70
6538;DHT22;3302;52.508;13.454;2023-04-24T07:58:14;15.40;82.80
6538;DHT22;3302;52.508;13.454;2023-04-24T08:00:40;15.50;83.80
6538;DHT22;3302;52.508;13.454;2023-04-24T08:03:06;15.60;83.40
6538;DHT22;3302;52.508;13.454;2023-04-24T08:05:32;15.50;81.40
6538;DHT22;3302;52.508;13.454;2023-04-24T08:07:58;15.40;78.50
6538;DHT22;3302;52.508;13.454;2023-04-24T08:10:24;15.40;78.00
6538;DHT22;3302;52.508;13.454;2023-04-24T08:12:50;15.50;79.80
6538;DHT22;3302;52.508;13.454;2023-04-24T08:15:16;15.70;78.40
6538;DHT22;3302;52.508;13.454;2023-04-24T08:17:42;15.80;78.20
6538;DHT22;3302;52.508;13.454;2023-04-24T08:20:09;15.70;76.80
6538;DHT22;3302;52.508;13.454;2023-04-24T08:22:42;15.70;76.10
6538;DHT22;3302;52.508;13.454;2023-04-24T08:25:10;15.60;76.00
6538;DHT22;3302;52.508;13.454;2023-04-24T08:27:36;15.60;76.20
6538;DHT22;3302;52.508;13.454;2023-04-24T08:30:03;15.70;74.70
6538;DHT22;3302;52.508;13.454;2023-04-24T08:32:29;15.90;75.40
6538;DHT22;3302;52.508;13.454;2023-04-24T08:34:56;16.20;77.40
6538;DHT22;3302;52.508;13.454;2023-04-24T08:37:22;16.30;80.70
6538;DHT22;3302;52.508;13.454;2023-04-24T08:39:51;16.10;82.40
6538;DHT22;3302;52.508;13.454;2023-04-24T08:42:18;16.30;86.00
6538;DHT22;3302;52.508;13.454;2023-04-24T08:44:45;16.30;83.00
6538;DHT22;3302;52.508;13.454;2023-04-24T08:47:11;16.50;82.10
6538;DHT22;3302;52.508;13.454;2023-04-24T08:49:38;16.50;81.40
6538;DHT22;3302;52.508;13.454;2023-04-24T08:52:07;16.40;80.30
6538;DHT22;3302;52.508;13.454;2023-04-24T08:54:36;16.10;80.80
6538;DHT22;3302;52.508;13.454;2023-04-24T08:57:02;16.40;80.00
6538;DHT22;3302;52.508;13.454;2023-04-24T08:59:32;16.60;79.70
6538;DHT22;3302;52.508;13.454;2023-04-24T09:02:00;16.90;77.50
6538;DHT22;3302;52.508;13.454;2023-04-24T09:04:27;16.80;73.80
6538;DHT22;3302;52.508;13.454;2023-04-24T09:06:57;16.50;72.10
6538;DHT22;3302;52.508;13.454;2023-04-24T09:09:24;16.50;72.10
6538;DHT22;3302;52.508;13.454;2023-04-24T09:11:51;16.40;71.90
6538;DHT22;3302;52.508;13.454;2023-04-24T09:14:19;16.80;72.30
6538;DHT22;3302;52.508;13.454;2023-04-24T09:16:46;16.90;73.10
6538;DHT22;3302;52.508;13.454;2023-04-24T09:19:12;16.90;74.80
6538;DHT22;3302;52.508;13.454;2023-04-24T09:21:38;16.80;75.20
6538;DHT22;3302;52.508;13.454;2023-04-24T09:24:06;16.60;76.60
6538;DHT22;3302;52.508;13.454;2023-04-24T09:26:35;16.40;77.50
6538;DHT22;3302;52.508;13.454;2023-04-24T09:29:03;16.30;77.50
6538;DHT22;3302;52.508;13.454;2023-04-24T09:31:29;16.30;77.50
6538;DHT22;3302;52.508;13.454;2023-04-24T09:33:57;16.50;77.00
6538;DHT22;3302;52.508;13.454;2023-04-24T09:36:30;16.20;76.30
6538;DHT22;3302;52.508;13.454;2023-04-24T09:39:01;16.20;77.90
6538;DHT22;3302;52.508;13.454;2023-04-24T09:41:28;16.40;76.00
6538;DHT22;3302;52.508;13.454;2023-04-24T09:43:58;16.30;77.10
6538;DHT22;3302;52.508;13.454;2023-04-24T09:46:35;16.40;79.10
6538;DHT22;3302;52.508;13.454;2023-04-24T09:49:15;16.30;80.20
6538;DHT22;3302;52.508;13.454;2023-04-24T09:51:41;16.10;81.40
6538;DHT22;3302;52.508;13.454;2023-04-24T09:54:17;16.30;81.30
6538;DHT22;3302;52.508;13.454;2023-04-24T09:56:45;16.30;81.30
6538;DHT22;3302;52.508;13.454;2023-04-24T09:59:12;16.30;82.50
6538;DHT22;3302;52.508;13.454;2023-04-24T10:01:38;16.20;81.80
6538;DHT22;3302;52.508;13.454;2023-04-24T10:04:18;16.30;82.10
6538;DHT22;3302;52.508;13.454;2023-04-24T10:06:44;16.50;79.80
6538;DHT22;3302;52.508;13.454;2023-04-24T10:09:10;16.70;78.70
6538;DHT22;3302;52.508;13.454;2023-04-24T10:11:41;16.80;77.80
6538;DHT22;3302;52.508;13.454;2023-04-24T10:14:10;16.60;77.00
6538;DHT22;3302;52.508;13.454;2023-04-24T10:16:37;16.70;77.60
6538;DHT22;3302;52.508;13.454;2023-04-24T10:19:03;16.90;77.70
6538;DHT22;3302;52.508;13.454;2023-04-24T10:21:30;16.90;78.10
6538;DHT22;3302;52.508;13.454;2023-04-24T10:23:56;16.80;79.00
6538;DHT22;3302;52.508;13.454;2023-04-24T10:26:23;16.70;78.40
6538;DHT22;3302;52.508;13.454;2023-04-24T10:28:49;16.60;77.60
6538;DHT22;3302;52.508;13.454;2023-04-24T10:31:17;16.80;77.20
6538;DHT22;3302;52.508;13.454;2023-04-24T10:33:45;16.90;76.00
6538;DHT22;3302;52.508;13.454;2023-04-24T10:36:12;17.20;74.90
6538;DHT22;3302;52.508;13.454;2023-04-24T10:38:43;16.80;76.00
6538;DHT22;3302;52.508;13.454;2023-04-24T10:41:12;16.90;76.30
6538;DHT22;3302;52.508;13.454;2023-04-24T10:44:11;16.90;76.10
6538;DHT22;3302;52.508;13.454;2023-04-24T10:46:39;17.00;76.90
6538;DHT22;3302;52.508;13.454;2023-04-24T10:49:06;16.90;76.10
6538;DHT22;3302;52.508;13.454;2023-04-24T10:51:52;16.70;76.00
6538;DHT22;3302;52.508;13.454;2023-04-24T10:56:52;16.50;74.50
6538;DHT22;3302;52.508;13.454;2023-04-24T10:59:27;16.60;75.00
6538;DHT22;3302;52.508;13.454;2023-04-24T11:02:00;16.60;75.60
6538;DHT22;3302;52.508;13.454;2023-04-24T11:04:30;16.50;76.20
6538;DHT22;3302;52.508;13.454;2023-04-24T11:06:57;16.60;76.60
6538;DHT22;3302;52.508;13.454;2023-04-24T11:09:22;16.40;75.70
6538;DHT22;3302;52.508;13.454;2023-04-24T11:12:05;16.40;75.00
6538;DHT22;3302;52.508;13.454;2023-04-24T11:17:31;16.90;73.50
6538;DHT22;3302;52.508;13.454;2023-04-24T11:20:06;17.30;72.60
6538;DHT22;3302;52.508;13.454;2023-04-24T11:22:37;17.00;73.60
6538;DHT22;3302;52.508;13.454;2023-04-24T11:25:04;16.90;74.50
6538;DHT22;3302;52.508;13.454;2023-04-24T11:27:31;16.60;75.70
6538;DHT22;3302;52.508;13.454;2023-04-24T11:30:00;16.80;75.90
6538;DHT22;3302;52.508;13.454;2023-04-24T11:32:40;16.70;76.00
6538;DHT22;3302;52.508;13.454;2023-04-24T11:35:18;16.60;76.30
6538;DHT22;3302;52.508;13.454;2023-04-24T11:37:49;16.60;77.50
6538;DHT22;3302;52.508;13.454;2023-04-24T11:40:17;16.50;75.00
6538;DHT22;3302;52.508;13.454;2023-04-24T11:42:45;15.70;87.30
6538;DHT22;3302;52.508;13.454;2023-04-24T11:45:13;14.70;96.10
6538;DHT22;3302;52.508;13.454;2023-04-24T11:47:39;14.50;98.80
6538;DHT22;3302;52.508;13.454;2023-04-24T11:50:07;14.30;97.10
6538;DHT22;3302;52.508;13.454;2023-04-24T11:52:37;14.30;97.60
6538;DHT22;3302;52.508;13.454;2023-04-24T11:55:03;14.80;99.50
6538;DHT22;3302;52.508;13.454;2023-04-24T11:57:29;14.90;97.10
6538;DHT22;3302;52.508;13.454;2023-04-24T12:00:03;15.20;98.80
6538;DHT22;3302;52.508;13.454;2023-04-24T12:02:30;15.10;96.90
6538;DHT22;3302;52.508;13.454;2023-04-24T12:04:56;15.50;97.50
6538;DHT22;3302;52.508;13.454;2023-04-24T12:07:23;15.70;96.40
6538;DHT22;3302;52.508;13.454;2023-04-24T12:09:54;15.80;95.50
6538;DHT22;3302;52.508;13.454;2023-04-24T12:12:20;15.70;94.80
6538;DHT22;3302;52.508;13.454;2023-04-24T12:14:54;16.10;94.40
6538;DHT22;3302;52.508;13.454;2023-04-24T12:19:50;16.40;92.50
6538;DHT22;3302;52.508;13.454;2023-04-24T12:22:16;16.50;90.90
6538;DHT22;3302;52.508;13.454;2023-04-24T12:25:03;16.20;90.90
6538;DHT22;3302;52.508;13.454;2023-04-24T12:27:32;16.30;91.10
6538;DHT22;3302;52.508;13.454;2023-04-24T12:30:00;16.80;90.00
6538;DHT22;3302;52.508;13.454;2023-04-24T12:32:26;16.90;89.00
6538;DHT22;3302;52.508;13.454;2023-04-24T12:34:53;16.90;87.00
6538;DHT22;3302;52.508;13.454;2023-04-24T12:37:19;16.90;86.00
6538;DHT22;3302;52.508;13.454;2023-04-24T12:40:09;16.90;85.40
6538;DHT22;3302;52.508;13.454;2023-04-24T12:42:37;17.00;83.10
6538;DHT22;3302;52.508;13.454;2023-04-24T12:45:07;17.10;77.90
6538;DHT22;3302;52.508;13.454;2023-04-24T12:47:34;16.90;72.00
6538;DHT22;3302;52.508;13.454;2023-04-24T12:50:01;16.70;65.40
6538;DHT22;3302;52.508;13.454;2023-04-24T12:52:28;16.90;64.60
6538;DHT22;3302;52.508;13.454;2023-04-24T12:54:56;16.90;61.10
6538;DHT22;3302;52.508;13.454;2023-04-24T12:57:23;17.10;60.40
6538;DHT22;3302;52.508;13.454;2023-04-24T12:59:49;17.00;57.80
6538;DHT22;3302;52.508;13.454;2023-04-24T13:02:15;17.20;58.10
6538;DHT22;3302;52.508;13.454;2023-04-24T13:04:46;17.30;56.10
6538;DHT22;3302;52.508;13.454;2023-04-24T13:07:13;17.30;55.50
6538;DHT22;3302;52.508;13.454;2023-04-24T13:09:40;17.50;54.90
6538;DHT22;3302;52.508;13.454;2023-04-24T13:12:06;17.70;53.20
6538;DHT22;3302;52.508;13.454;2023-04-24T13:14:32;17.70;51.70
6538;DHT22;3302;52.508;13.454;2023-04-24T13:16:58;17.60;52.10
6538;DHT22;3302;52.508;13.454;2023-04-24T13:19:26;17.70;51.90
6538;DHT22;3302;52.508;13.454;2023-04-24T13:21:52;17.50;49.40
6538;DHT22;3302;52.508;13.454;2023-04-24T13:24:18;17.60;47.40
6538;DHT22;3302;52.508;13.454;2023-04-24T13:26:44;17.60;46.90
6538;DHT22;3302;52.508;13.454;2023-04-24T13:29:10;17.70;45.10
6538;DHT22;3302;52.508;13.454;2023-04-24T13:31:36;17.70;46.00
6538;DHT22;3302;52.508;13.454;2023-04-24T13:34:02;17.80;46.90
6538;DHT22;3302;52.508;13.454;2023-04-24T13:36:29;17.80;45.90
6538;DHT22;3302;52.508;13.454;2023-04-24T13:38:55;18.00;45.60
6538;DHT22;3302;52.508;13.454;2023-04-24T13:41:21;18.00;45.30
6538;DHT22;3302;52.508;13.454;2023-04-24T13:43:47;17.80;44.10
6538;DHT22;3302;52.508;13.454;2023-04-24T13:46:13;17.80;42.90
6538;DHT22;3302;52.508;13.454;2023-04-24T13:48:38;17.70;40.60
6538;DHT22;3302;52.508;13.454;2023-04-24T13:51:04;17.80;40.30
6538;DHT22;3302;52.508;13.454;2023-04-24T13:53:30;18.00;41.80
6538;DHT22;3302;52.508;13.454;2023-04-24T13:55:56;18.10;42.20
6538;DHT22;3302;52.508;13.454;2023-04-24T13:58:21;18.20;42.20
6538;DHT22;3302;52.508;13.454;2023-04-24T14:00:47;18.10;41.90
6538;DHT22;3302;52.508;13.454;2023-04-24T14:03:13;18.10;42.20
6538;DHT22;3302;52.508;13.454;2023-04-24T14:05:39;18.00;40.40
6538;DHT22;3302;52.508;13.454;2023-04-24T14:08:04;18.00;41.50
6538;DHT22;3302;52.508;13.454;2023-04-24T14:10:31;17.70;42.10
6538;DHT22;3302;52.508;13.454;2023-04-24T14:12:57;17.70;41.60
6538;DHT22;3302;52.508;13.454;2023-04-24T14:15:23;17.80;42.30
6538;DHT22;3302;52.508;13.454;2023-04-24T14:17:49;17.90;42.70
6538;DHT22;3302;52.508;13.454;2023-04-24T14:20:15;17.50;41.60
6538;DHT22;3302;52.508;13.454;2023-04-24T14:22:41;18.00;42.50
6538;DHT22;3302;52.508;13.454;2023-04-24T14:25:07;18.00;42.90
6538;DHT22;3302;52.508;13.454;2023-04-24T14:27:33;18.10;43.50
6538;DHT22;3302;52.508;13.454;2023-04-24T14:30:00;18.20;42.70
6538;DHT22;3302;52.508;13.454;2023-04-24T14:32:26;18.00;41.80
6538;DHT22;3302;52.508;13.454;2023-04-24T14:34:52;17.80;41.80
6538;DHT22;3302;52.508;13.454;2023-04-24T14:37:18;17.90;42.20
6538;DHT22;3302;52.508;13.454;2023-04-24T14:39:45;18.00;42.30
6538;DHT22;3302;52.508;13.454;2023-04-24T14:42:11;18.20;39.00
6538;DHT22;3302;52.508;13.454;2023-04-24T14:44:36;17.90;39.40
6538;DHT22;3302;52.508;13.454;2023-04-24T14:47:02;17.50;39.20
6538;DHT22;3302;52.508;13.454;2023-04-24T14:49:28;17.50;40.10
6538;DHT22;3302;52.508;13.454;2023-04-24T14:51:54;17.50;41.00
6538;DHT22;3302;52.508;13.454;2023-04-24T14:54:19;17.60;41.40
6538;DHT22;3302;52.508;13.454;2023-04-24T14:56:49;17.60;41.80
6538;DHT22;3302;52.508;13.454;2023-04-24T14:59:15;17.90;42.20
6538;DHT22;3302;52.508;13.454;2023-04-24T15:01:41;18.50;42.50
6538;DHT22;3302;52.508;13.454;2023-04-24T15:04:06;18.30;41.20
6538;DHT22;3302;52.508;13.454;2023-04-24T15:06:32;18.10;42.30
6538;DHT22;3302;52.508;13.454;2023-04-24T15:08:58;17.60;42.10
6538;DHT22;3302;52.508;13.454;2023-04-24T15:11:24;17.40;42.80
6538;DHT22;3302;52.508;13.454;2023-04-24T15:13:49;17.40;43.60
6538;DHT22;3302;52.508;13.454;2023-04-24T15:16:15;17.00;43.30
6538;DHT22;3302;52.508;13.454;2023-04-24T15:18:41;17.00;44.40
6538;DHT22;3302;52.508;13.454;2023-04-24T15:21:07;17.00;44.50
6538;DHT22;3302;52.508;13.454;2023-04-24T15:23:33;17.10;44.50
6538;DHT22;3302;52.508;13.454;2023-04-24T15:25:59;17.10;44.90
6538;DHT22;3302;52.508;13.454;2023-04-24T15:28:25;17.20;44.70
6538;DHT22;3302;52.508;13.454;2023-04-24T15:30:51;17.10;44.00
6538;DHT22;3302;52.508;13.454;2023-04-24T15:33:16;17.20;43.20
6538;DHT22;3302;52.508;13.454;2023-04-24T15:35:42;17.10;42.50
6538;DHT22;3302;52.508;13.454;2023-04-24T15:38:08;16.90;42.30
6538;DHT22;3302;52.508;13.454;2023-04-24T15:40:34;16.90;43.20
6538;DHT22;3302;52.508;13.454;2023-04-24T15:42:59;17.10;46.30
6538;DHT22;3302;52.508;13.454;2023-04-24T15:45:25;16.40;43.50
6538;DHT22;3302;52.508;13.454;2023-04-24T15:47:51;16.30;44.10
6538;DHT22;3302;52.508;13.454;2023-04-24T15:50:17;16.30;44.60